sensor_id;sensor_type;location;lat;lon;timestamp;P1;durP1;ratioP1;P2;durP2;ratioP2
59127;SDS011;44912;52.754;5.994;2024-03-06T00:02:23;42.90;;;30.25;;
59127;SDS011;44912;52.754;5.994;2024-03-06T00:04:49;45.55;;;30.75;;
59127;SDS011;44912;52.754;5.994;2024-03-06T00:07:15;47.70;;;30.95;;
59127;SDS011;44912;52.754;5.994;2024-03-06T00:09:41;47.17;;;30.40;;
59127;SDS011;44912;52.754;5.994;2024-03-06T00:12:06;51.58;;;31.05;;
59127;SDS011;44912;52.754;5.994;2024-03-06T00:14:32;44.90;;;30.35;;
59127;SDS011;44912;52.754;5.994;2024-03-06T00:16:58;47.50;;;31.13;;
59127;SDS011;44912;52.754;5.994;2024-03-06T00:19:23;43.78;;;30.02;;
59127;SDS011;44912;52.754;5.994;2024-03-06T00:21:49;50.17;;;32.17;;
59127;SDS011;44912;52.754;5.994;2024-03-06T00:24:15;44.15;;;29.70;;
59127;SDS011;44912;52.754;5.994;2024-03-06T00:26:41;45.78;;;29.60;;
59127;SDS011;44912;52.754;5.994;2024-03-06T00:29:09;46.88;;;31.77;;
59127;SDS011;44912;52.754;5.994;2024-03-06T00:31:35;44.35;;;30.67;;
59127;SDS011;44912;52.754;5.994;2024-03-06T00:34:01;45.58;;;31.38;;
59127;SDS011;44912;52.754;5.994;2024-03-06T00:36:26;44.40;;;29.15;;
59127;SDS011;44912;52.754;5.994;2024-03-06T00:38:52;50.65;;;31.83;;
59127;SDS011;44912;52.754;5.994;2024-03-06T00:41:18;47.33;;;30.55;;
59127;SDS011;44912;52.754;5.994;2024-03-06T00:43:44;46.00;;;30.40;;
59127;SDS011;44912;52.754;5.994;2024-03-06T00:46:10;44.05;;;30.23;;
59127;SDS011;44912;52.754;5.994;2024-03-06T00:48:36;41.35;;;29.38;;
59127;SDS011;44912;52.754;5.994;2024-03-06T00:51:04;45.42;;;29.70;;
59127;SDS011;44912;52.754;5.994;2024-03-06T00:53:31;41.15;;;28.70;;
59127;SDS011;44912;52.754;5.994;2024-03-06T00:55:56;39.63;;;28.67;;
59127;SDS011;44912;52.754;5.994;2024-03-06T00:58:22;46.38;;;31.00;;
59127;SDS011;44912;52.754;5.994;2024-03-06T01:00:47;46.60;;;30.67;;
59127;SDS011;44912;52.754;5.994;2024-03-06T01:03:13;47.67;;;30.80;;
59127;SDS011;44912;52.754;5.994;2024-03-06T01:05:39;45.35;;;30.85;;
59127;SDS011;44912;52.754;5.994;2024-03-06T01:08:04;47.15;;;31.30;;
59127;SDS011;44912;52.754;5.994;2024-03-06T01:10:30;44.17;;;30.23;;
59127;SDS011;44912;52.754;5.994;2024-03-06T01:12:56;40.58;;;28.60;;
59127;SDS011;44912;52.754;5.994;2024-03-06T01:15:22;42.90;;;27.77;;
59127;SDS011;44912;52.754;5.994;2024-03-06T01:17:48;41.42;;;29.20;;
59127;SDS011;44912;52.754;5.994;2024-03-06T01:20:14;39.30;;;27.42;;
59127;SDS011;44912;52.754;5.994;2024-03-06T01:22:40;39.13;;;28.27;;
59127;SDS011;44912;52.754;5.994;2024-03-06T01:25:06;39.88;;;27.85;;
59127;SDS011;44912;52.754;5.994;2024-03-06T01:27:32;39.15;;;27.33;;
59127;SDS011;44912;52.754;5.994;2024-03-06T01:29:58;39.50;;;27.08;;
59127;SDS011;44912;52.754;5.994;2024-03-06T01:32:23;38.08;;;26.20;;
59127;SDS011;44912;52.754;5.994;2024-03-06T01:34:49;38.80;;;27.50;;
59127;SDS011;44912;52.754;5.994;2024-03-06T01:37:15;39.13;;;26.63;;
59127;SDS011;44912;52.754;5.994;2024-03-06T01:39:41;39.15;;;25.77;;
59127;SDS011;44912;52.754;5.994;2024-03-06T01:42:06;35.45;;;25.75;;
59127;SDS011;44912;52.754;5.994;2024-03-06T01:44:32;34.50;;;24.92;;
59127;SDS011;44912;52.754;5.994;2024-03-06T01:46:58;34.25;;;22.85;;
59127;SDS011;44912;52.754;5.994;2024-03-06T01:49:23;35.50;;;23.42;;
59127;SDS011;44912;52.754;5.994;2024-03-06T01:51:55;30.83;;;21.95;;
59127;SDS011;44912;52.754;5.994;2024-03-06T01:54:22;31.65;;;20.40;;
59127;SDS011;44912;52.754;5.994;2024-03-06T01:56:48;30.00;;;21.88;;
59127;SDS011;44912;52.754;5.994;2024-03-06T01:59:15;33.85;;;20.67;;
59127;SDS011;44912;52.754;5.994;2024-03-06T02:01:43;29.38;;;20.35;;
59127;SDS011;44912;52.754;5.994;2024-03-06T02:04:09;30.40;;;20.13;;
59127;SDS011;44912;52.754;5.994;2024-03-06T02:06:38;28.52;;;19.10;;
59127;SDS011;44912;52.754;5.994;2024-03-06T02:09:04;27.90;;;18.08;;
59127;SDS011;44912;52.754;5.994;2024-03-06T02:11:31;25.75;;;17.90;;
59127;SDS011;44912;52.754;5.994;2024-03-06T02:13:57;28.70;;;18.38;;
59127;SDS011;44912;52.754;5.994;2024-03-06T02:16:23;23.33;;;16.05;;
59127;SDS011;44912;52.754;5.994;2024-03-06T02:18:56;27.67;;;16.83;;
59127;SDS011;44912;52.754;5.994;2024-03-06T02:21:22;25.30;;;16.75;;
59127;SDS011;44912;52.754;5.994;2024-03-06T02:23:49;22.65;;;15.50;;
59127;SDS011;44912;52.754;5.994;2024-03-06T02:26:19;29.83;;;15.88;;
59127;SDS011;44912;52.754;5.994;2024-03-06T02:28:49;21.50;;;15.57;;
59127;SDS011;44912;52.754;5.994;2024-03-06T02:31:16;24.40;;;15.75;;
59127;SDS011;44912;52.754;5.994;2024-03-06T02:33:45;23.30;;;15.73;;
59127;SDS011;44912;52.754;5.994;2024-03-06T02:36:13;22.48;;;15.20;;
59127;SDS011;44912;52.754;5.994;2024-03-06T02:38:39;24.38;;;15.48;;
59127;SDS011;44912;52.754;5.994;2024-03-06T02:41:05;21.90;;;14.57;;
59127;SDS011;44912;52.754;5.994;2024-03-06T02:43:32;25.05;;;14.57;;
59127;SDS011;44912;52.754;5.994;2024-03-06T02:45:58;23.35;;;14.60;;
59127;SDS011;44912;52.754;5.994;2024-03-06T02:48:24;24.95;;;14.82;;
59127;SDS011;44912;52.754;5.994;2024-03-06T02:50:51;27.23;;;14.75;;
59127;SDS011;44912;52.754;5.994;2024-03-06T02:53:17;24.13;;;15.13;;
59127;SDS011;44912;52.754;5.994;2024-03-06T02:55:42;21.85;;;15.35;;
59127;SDS011;44912;52.754;5.994;2024-03-06T02:58:08;22.52;;;14.70;;
59127;SDS011;44912;52.754;5.994;2024-03-06T03:00:33;23.40;;;15.38;;
59127;SDS011;44912;52.754;5.994;2024-03-06T03:02:59;25.13;;;14.27;;
59127;SDS011;44912;52.754;5.994;2024-03-06T03:05:25;21.60;;;14.23;;
59127;SDS011;44912;52.754;5.994;2024-03-06T03:07:50;20.85;;;13.68;;
59127;SDS011;44912;52.754;5.994;2024-03-06T03:10:16;23.45;;;14.82;;
59127;SDS011;44912;52.754;5.994;2024-03-06T03:12:42;23.40;;;15.35;;
59127;SDS011;44912;52.754;5.994;2024-03-06T03:15:08;28.10;;;15.63;;
59127;SDS011;44912;52.754;5.994;2024-03-06T03:17:34;22.92;;;16.05;;
59127;SDS011;44912;52.754;5.994;2024-03-06T03:20:00;22.75;;;15.15;;
59127;SDS011;44912;52.754;5.994;2024-03-06T03:22:35;29.52;;;17.02;;
59127;SDS011;44912;52.754;5.994;2024-03-06T03:25:01;26.58;;;17.02;;
59127;SDS011;44912;52.754;5.994;2024-03-06T03:27:27;24.25;;;15.35;;
59127;SDS011;44912;52.754;5.994;2024-03-06T03:29:53;28.05;;;15.68;;
59127;SDS011;44912;52.754;5.994;2024-03-06T03:32:18;20.45;;;14.48;;
59127;SDS011;44912;52.754;5.994;2024-03-06T03:34:44;24.75;;;14.50;;
59127;SDS011;44912;52.754;5.994;2024-03-06T03:37:09;23.45;;;15.13;;
59127;SDS011;44912;52.754;5.994;2024-03-06T03:39:35;25.10;;;14.25;;
59127;SDS011;44912;52.754;5.994;2024-03-06T03:42:01;21.05;;;14.60;;
59127;SDS011;44912;52.754;5.994;2024-03-06T03:44:27;20.27;;;13.55;;
59127;SDS011;44912;52.754;5.994;2024-03-06T03:46:52;22.38;;;14.85;;
59127;SDS011;44912;52.754;5.994;2024-03-06T03:49:18;23.92;;;14.25;;
59127;SDS011;44912;52.754;5.994;2024-03-06T03:51:44;23.33;;;13.90;;
59127;SDS011;44912;52.754;5.994;2024-03-06T03:54:09;22.83;;;13.02;;
59127;SDS011;44912;52.754;5.994;2024-03-06T03:56:35;22.20;;;13.15;;
59127;SDS011;44912;52.754;5.994;2024-03-06T03:59:00;20.70;;;13.48;;
59127;SDS011;44912;52.754;5.994;2024-03-06T04:01:26;18.27;;;12.85;;
59127;SDS011;44912;52.754;5.994;2024-03-06T04:03:52;23.95;;;13.82;;
59127;SDS011;44912;52.754;5.994;2024-03-06T04:06:18;21.38;;;14.18;;
59127;SDS011;44912;52.754;5.994;2024-03-06T04:08:44;19.63;;;12.25;;
59127;SDS011;44912;52.754;5.994;2024-03-06T04:11:10;21.55;;;12.88;;
59127;SDS011;44912;52.754;5.994;2024-03-06T04:13:36;19.42;;;12.18;;
59127;SDS011;44912;52.754;5.994;2024-03-06T04:16:03;19.70;;;12.35;;
59127;SDS011;44912;52.754;5.994;2024-03-06T04:18:29;21.85;;;12.85;;
59127;SDS011;44912;52.754;5.994;2024-03-06T04:20:59;20.38;;;13.02;;
59127;SDS011;44912;52.754;5.994;2024-03-06T04:23:31;19.52;;;12.25;;
59127;SDS011;44912;52.754;5.994;2024-03-06T04:25:58;18.77;;;12.30;;
59127;SDS011;44912;52.754;5.994;2024-03-06T04:28:27;22.50;;;12.40;;
59127;SDS011;44912;52.754;5.994;2024-03-06T04:30:53;23.50;;;12.55;;
59127;SDS011;44912;52.754;5.994;2024-03-06T04:33:19;17.23;;;12.32;;
59127;SDS011;44912;52.754;5.994;2024-03-06T04:35:45;20.17;;;12.30;;
59127;SDS011;44912;52.754;5.994;2024-03-06T04:38:11;23.80;;;12.23;;
59127;SDS011;44912;52.754;5.994;2024-03-06T04:40:36;20.38;;;11.70;;
59127;SDS011;44912;52.754;5.994;2024-03-06T04:43:02;19.17;;;11.40;;
59127;SDS011;44912;52.754;5.994;2024-03-06T04:45:27;22.38;;;12.32;;
59127;SDS011;44912;52.754;5.994;2024-03-06T04:47:54;17.50;;;10.98;;
59127;SDS011;44912;52.754;5.994;2024-03-06T04:50:19;17.58;;;11.90;;
59127;SDS011;44912;52.754;5.994;2024-03-06T04:52:45;18.80;;;11.20;;
59127;SDS011;44912;52.754;5.994;2024-03-06T04:55:11;18.60;;;11.80;;
59127;SDS011;44912;52.754;5.994;2024-03-06T04:57:38;20.65;;;12.25;;
59127;SDS011;44912;52.754;5.994;2024-03-06T05:00:05;21.10;;;11.90;;
59127;SDS011;44912;52.754;5.994;2024-03-06T05:02:33;18.52;;;12.18;;
59127;SDS011;44912;52.754;5.994;2024-03-06T05:05:00;17.50;;;11.73;;
59127;SDS011;44912;52.754;5.994;2024-03-06T05:07:30;18.77;;;11.35;;
59127;SDS011;44912;52.754;5.994;2024-03-06T05:09:57;18.23;;;12.02;;
59127;SDS011;44912;52.754;5.994;2024-03-06T05:12:24;20.90;;;12.98;;
59127;SDS011;44912;52.754;5.994;2024-03-06T05:14:51;20.10;;;12.25;;
59127;SDS011;44912;52.754;5.994;2024-03-06T05:17:17;21.48;;;12.95;;
59127;SDS011;44912;52.754;5.994;2024-03-06T05:19:43;17.70;;;12.23;;
59127;SDS011;44912;52.754;5.994;2024-03-06T05:22:13;23.10;;;11.45;;
59127;SDS011;44912;52.754;5.994;2024-03-06T05:24:38;22.77;;;12.02;;
59127;SDS011;44912;52.754;5.994;2024-03-06T05:27:04;20.20;;;11.52;;
59127;SDS011;44912;52.754;5.994;2024-03-06T05:29:30;22.15;;;12.35;;
59127;SDS011;44912;52.754;5.994;2024-03-06T05:31:56;22.17;;;12.57;;
59127;SDS011;44912;52.754;5.994;2024-03-06T05:34:22;20.33;;;12.38;;
59127;SDS011;44912;52.754;5.994;2024-03-06T05:36:48;18.85;;;12.73;;
59127;SDS011;44912;52.754;5.994;2024-03-06T05:39:14;22.70;;;12.57;;
59127;SDS011;44912;52.754;5.994;2024-03-06T05:41:40;20.63;;;12.07;;
59127;SDS011;44912;52.754;5.994;2024-03-06T05:44:07;17.77;;;11.98;;
59127;SDS011;44912;52.754;5.994;2024-03-06T05:46:33;18.38;;;12.30;;
59127;SDS011;44912;52.754;5.994;2024-03-06T05:48:58;22.35;;;14.32;;
59127;SDS011;44912;52.754;5.994;2024-03-06T05:51:24;21.33;;;13.05;;
59127;SDS011;44912;52.754;5.994;2024-03-06T05:53:50;19.95;;;12.63;;
59127;SDS011;44912;52.754;5.994;2024-03-06T05:56:19;19.25;;;12.88;;
59127;SDS011;44912;52.754;5.994;2024-03-06T05:58:45;18.35;;;12.43;;
59127;SDS011;44912;52.754;5.994;2024-03-06T06:01:15;19.42;;;12.27;;
59127;SDS011;44912;52.754;5.994;2024-03-06T06:03:44;22.35;;;12.18;;
59127;SDS011;44912;52.754;5.994;2024-03-06T06:06:09;20.27;;;11.63;;
59127;SDS011;44912;52.754;5.994;2024-03-06T06:08:35;20.00;;;12.43;;
59127;SDS011;44912;52.754;5.994;2024-03-06T06:11:04;19.88;;;13.02;;
59127;SDS011;44912;52.754;5.994;2024-03-06T06:13:29;20.00;;;12.35;;
59127;SDS011;44912;52.754;5.994;2024-03-06T06:15:57;21.23;;;12.73;;
59127;SDS011;44912;52.754;5.994;2024-03-06T06:18:23;20.13;;;13.07;;
59127;SDS011;44912;52.754;5.994;2024-03-06T06:20:49;22.05;;;12.10;;
59127;SDS011;44912;52.754;5.994;2024-03-06T06:23:14;24.08;;;13.82;;
59127;SDS011;44912;52.754;5.994;2024-03-06T06:25:40;21.95;;;12.40;;
59127;SDS011;44912;52.754;5.994;2024-03-06T06:28:05;21.33;;;13.02;;
59127;SDS011;44912;52.754;5.994;2024-03-06T06:30:31;21.90;;;13.32;;
59127;SDS011;44912;52.754;5.994;2024-03-06T06:32:57;21.42;;;12.93;;
59127;SDS011;44912;52.754;5.994;2024-03-06T06:35:23;18.90;;;12.57;;
59127;SDS011;44912;52.754;5.994;2024-03-06T06:37:50;23.52;;;13.50;;
59127;SDS011;44912;52.754;5.994;2024-03-06T06:40:15;21.80;;;12.80;;
59127;SDS011;44912;52.754;5.994;2024-03-06T06:42:44;19.55;;;12.80;;
59127;SDS011;44912;52.754;5.994;2024-03-06T06:45:14;22.15;;;13.18;;
59127;SDS011;44912;52.754;5.994;2024-03-06T06:47:40;19.40;;;12.20;;
59127;SDS011;44912;52.754;5.994;2024-03-06T06:50:06;22.20;;;13.10;;
59127;SDS011;44912;52.754;5.994;2024-03-06T06:52:34;22.00;;;12.93;;
59127;SDS011;44912;52.754;5.994;2024-03-06T06:55:03;20.50;;;13.15;;
59127;SDS011;44912;52.754;5.994;2024-03-06T06:57:29;20.77;;;13.50;;
59127;SDS011;44912;52.754;5.994;2024-03-06T06:59:55;24.65;;;14.32;;
59127;SDS011;44912;52.754;5.994;2024-03-06T07:02:21;21.42;;;13.23;;
59127;SDS011;44912;52.754;5.994;2024-03-06T07:04:47;22.38;;;14.07;;
59127;SDS011;44912;52.754;5.994;2024-03-06T07:07:13;21.23;;;13.60;;
59127;SDS011;44912;52.754;5.994;2024-03-06T07:09:39;24.35;;;14.35;;
59127;SDS011;44912;52.754;5.994;2024-03-06T07:12:05;21.95;;;14.02;;
59127;SDS011;44912;52.754;5.994;2024-03-06T07:14:32;20.38;;;14.15;;
59127;SDS011;44912;52.754;5.994;2024-03-06T07:16:58;21.20;;;13.82;;
59127;SDS011;44912;52.754;5.994;2024-03-06T07:19:24;28.05;;;15.82;;
59127;SDS011;44912;52.754;5.994;2024-03-06T07:21:50;21.83;;;14.45;;
59127;SDS011;44912;52.754;5.994;2024-03-06T07:24:17;23.45;;;13.77;;
59127;SDS011;44912;52.754;5.994;2024-03-06T07:26:43;22.52;;;14.88;;
59127;SDS011;44912;52.754;5.994;2024-03-06T07:29:08;24.25;;;14.30;;
59127;SDS011;44912;52.754;5.994;2024-03-06T07:31:38;24.50;;;14.90;;
59127;SDS011;44912;52.754;5.994;2024-03-06T07:34:04;21.35;;;14.23;;
59127;SDS011;44912;52.754;5.994;2024-03-06T07:36:33;24.90;;;14.68;;
59127;SDS011;44912;52.754;5.994;2024-03-06T07:39:00;24.30;;;15.27;;
59127;SDS011;44912;52.754;5.994;2024-03-06T07:41:26;25.23;;;15.15;;
59127;SDS011;44912;52.754;5.994;2024-03-06T07:43:51;23.55;;;14.80;;
59127;SDS011;44912;52.754;5.994;2024-03-06T07:46:17;27.60;;;14.98;;
59127;SDS011;44912;52.754;5.994;2024-03-06T07:48:43;25.05;;;14.95;;
59127;SDS011;44912;52.754;5.994;2024-03-06T07:51:09;25.65;;;15.25;;
59127;SDS011;44912;52.754;5.994;2024-03-06T07:53:35;26.58;;;16.05;;
59127;SDS011;44912;52.754;5.994;2024-03-06T07:56:01;24.17;;;15.13;;
59127;SDS011;44912;52.754;5.994;2024-03-06T07:58:28;25.80;;;15.07;;
59127;SDS011;44912;52.754;5.994;2024-03-06T08:00:53;26.05;;;15.15;;
59127;SDS011;44912;52.754;5.994;2024-03-06T08:03:21;27.27;;;16.17;;
59127;SDS011;44912;52.754;5.994;2024-03-06T08:05:49;25.00;;;16.00;;
59127;SDS011;44912;52.754;5.994;2024-03-06T08:08:18;29.77;;;16.25;;
59127;SDS011;44912;52.754;5.994;2024-03-06T08:10:44;30.38;;;17.42;;
59127;SDS011;44912;52.754;5.994;2024-03-06T08:13:10;28.70;;;16.13;;
59127;SDS011;44912;52.754;5.994;2024-03-06T08:15:36;27.30;;;16.63;;
59127;SDS011;44912;52.754;5.994;2024-03-06T08:18:01;30.63;;;17.17;;
59127;SDS011;44912;52.754;5.994;2024-03-06T08:20:28;28.00;;;17.85;;
59127;SDS011;44912;52.754;5.994;2024-03-06T08:22:54;33.55;;;17.80;;
59127;SDS011;44912;52.754;5.994;2024-03-06T08:25:21;30.15;;;17.77;;
59127;SDS011;44912;52.754;5.994;2024-03-06T08:27:47;30.02;;;18.38;;
59127;SDS011;44912;52.754;5.994;2024-03-06T08:30:12;32.35;;;18.27;;
59127;SDS011;44912;52.754;5.994;2024-03-06T08:32:38;33.63;;;18.10;;
59127;SDS011;44912;52.754;5.994;2024-03-06T08:35:04;30.50;;;18.25;;
59127;SDS011;44912;52.754;5.994;2024-03-06T08:37:31;27.25;;;17.88;;
59127;SDS011;44912;52.754;5.994;2024-03-06T08:39:58;28.20;;;17.85;;
59127;SDS011;44912;52.754;5.994;2024-03-06T08:42:24;32.55;;;18.63;;
59127;SDS011;44912;52.754;5.994;2024-03-06T08:44:50;29.83;;;19.17;;
59127;SDS011;44912;52.754;5.994;2024-03-06T08:47:16;31.30;;;19.52;;
59127;SDS011;44912;52.754;5.994;2024-03-06T08:49:42;31.15;;;18.67;;
59127;SDS011;44912;52.754;5.994;2024-03-06T08:52:07;33.72;;;18.92;;
59127;SDS011;44912;52.754;5.994;2024-03-06T08:54:35;32.03;;;18.92;;
59127;SDS011;44912;52.754;5.994;2024-03-06T08:57:01;28.95;;;18.25;;
59127;SDS011;44912;52.754;5.994;2024-03-06T08:59:28;27.75;;;18.70;;
59127;SDS011;44912;52.754;5.994;2024-03-06T09:01:54;27.85;;;19.35;;
59127;SDS011;44912;52.754;5.994;2024-03-06T09:04:21;31.80;;;18.83;;
59127;SDS011;44912;52.754;5.994;2024-03-06T09:06:47;31.65;;;19.42;;
59127;SDS011;44912;52.754;5.994;2024-03-06T09:09:14;31.50;;;18.75;;
59127;SDS011;44912;52.754;5.994;2024-03-06T09:11:43;31.52;;;19.05;;
59127;SDS011;44912;52.754;5.994;2024-03-06T09:14:09;30.70;;;19.38;;
59127;SDS011;44912;52.754;5.994;2024-03-06T09:16:35;36.83;;;19.60;;
59127;SDS011;44912;52.754;5.994;2024-03-06T09:19:01;32.65;;;20.17;;
59127;SDS011;44912;52.754;5.994;2024-03-06T09:21:27;32.28;;;19.15;;
59127;SDS011;44912;52.754;5.994;2024-03-06T09:23:53;33.45;;;19.80;;
59127;SDS011;44912;52.754;5.994;2024-03-06T09:26:19;31.30;;;19.88;;
59127;SDS011;44912;52.754;5.994;2024-03-06T09:28:46;36.72;;;21.17;;
59127;SDS011;44912;52.754;5.994;2024-03-06T09:31:12;35.92;;;21.92;;
59127;SDS011;44912;52.754;5.994;2024-03-06T09:33:39;33.47;;;20.67;;
59127;SDS011;44912;52.754;5.994;2024-03-06T09:36:05;34.97;;;20.95;;
59127;SDS011;44912;52.754;5.994;2024-03-06T09:38:30;35.70;;;21.83;;
59127;SDS011;44912;52.754;5.994;2024-03-06T09:40:56;35.40;;;21.05;;
59127;SDS011;44912;52.754;5.994;2024-03-06T09:43:22;37.58;;;22.75;;
59127;SDS011;44912;52.754;5.994;2024-03-06T09:45:49;42.00;;;23.10;;
59127;SDS011;44912;52.754;5.994;2024-03-06T09:48:16;41.25;;;24.25;;
59127;SDS011;44912;52.754;5.994;2024-03-06T09:50:46;38.88;;;23.17;;
59127;SDS011;44912;52.754;5.994;2024-03-06T09:53:15;40.88;;;25.45;;
59127;SDS011;44912;52.754;5.994;2024-03-06T09:55:42;46.03;;;24.67;;
59127;SDS011;44912;52.754;5.994;2024-03-06T09:58:08;42.17;;;24.48;;
59127;SDS011;44912;52.754;5.994;2024-03-06T10:00:37;39.67;;;24.08;;
59127;SDS011;44912;52.754;5.994;2024-03-06T10:03:03;36.25;;;23.67;;
59127;SDS011;44912;52.754;5.994;2024-03-06T10:05:33;41.80;;;25.08;;
59127;SDS011;44912;52.754;5.994;2024-03-06T10:08:03;44.25;;;24.50;;
59127;SDS011;44912;52.754;5.994;2024-03-06T10:10:29;40.08;;;24.45;;
59127;SDS011;44912;52.754;5.994;2024-03-06T10:12:55;37.00;;;22.80;;
59127;SDS011;44912;52.754;5.994;2024-03-06T10:15:22;38.15;;;23.05;;
59127;SDS011;44912;52.754;5.994;2024-03-06T10:17:48;37.65;;;23.08;;
59127;SDS011;44912;52.754;5.994;2024-03-06T10:22:49;38.20;;;24.83;;
59127;SDS011;44912;52.754;5.994;2024-03-06T10:25:25;40.90;;;23.92;;
59127;SDS011;44912;52.754;5.994;2024-03-06T10:28:05;39.33;;;24.33;;
59127;SDS011;44912;52.754;5.994;2024-03-06T10:30:35;41.70;;;26.33;;
59127;SDS011;44912;52.754;5.994;2024-03-06T10:33:04;40.85;;;26.17;;
59127;SDS011;44912;52.754;5.994;2024-03-06T10:35:31;40.40;;;25.35;;
59127;SDS011;44912;52.754;5.994;2024-03-06T10:37:59;40.38;;;24.90;;
59127;SDS011;44912;52.754;5.994;2024-03-06T10:40:26;43.15;;;25.30;;
59127;SDS011;44912;52.754;5.994;2024-03-06T10:42:54;46.90;;;26.20;;
59127;SDS011;44912;52.754;5.994;2024-03-06T10:45:21;39.58;;;25.23;;
59127;SDS011;44912;52.754;5.994;2024-03-06T10:47:51;38.95;;;24.23;;
59127;SDS011;44912;52.754;5.994;2024-03-06T10:50:18;38.10;;;25.85;;
59127;SDS011;44912;52.754;5.994;2024-03-06T10:52:45;44.08;;;26.15;;
59127;SDS011;44912;52.754;5.994;2024-03-06T10:55:12;38.97;;;25.45;;
59127;SDS011;44912;52.754;5.994;2024-03-06T10:57:38;40.85;;;26.13;;
59127;SDS011;44912;52.754;5.994;2024-03-06T11:00:06;36.67;;;25.35;;
59127;SDS011;44912;52.754;5.994;2024-03-06T11:02:32;45.83;;;26.45;;
59127;SDS011;44912;52.754;5.994;2024-03-06T11:05:01;43.28;;;28.02;;
59127;SDS011;44912;52.754;5.994;2024-03-06T11:07:30;36.50;;;25.35;;
59127;SDS011;44912;52.754;5.994;2024-03-06T11:09:58;43.80;;;26.35;;
59127;SDS011;44912;52.754;5.994;2024-03-06T11:12:37;42.05;;;26.58;;
59127;SDS011;44912;52.754;5.994;2024-03-06T11:17:39;37.78;;;24.35;;
59127;SDS011;44912;52.754;5.994;2024-03-06T11:25:55;40.08;;;24.95;;
59127;SDS011;44912;52.754;5.994;2024-03-06T11:30:45;38.70;;;26.35;;
59127;SDS011;44912;52.754;5.994;2024-03-06T11:33:12;42.58;;;25.70;;
59127;SDS011;44912;52.754;5.994;2024-03-06T11:35:41;44.25;;;26.25;;
59127;SDS011;44912;52.754;5.994;2024-03-06T11:38:16;42.20;;;26.17;;
59127;SDS011;44912;52.754;5.994;2024-03-06T11:40:45;40.45;;;27.40;;
59127;SDS011;44912;52.754;5.994;2024-03-06T11:43:26;37.80;;;25.38;;
59127;SDS011;44912;52.754;5.994;2024-03-06T11:45:52;41.95;;;27.30;;
59127;SDS011;44912;52.754;5.994;2024-03-06T11:48:18;41.20;;;26.83;;
59127;SDS011;44912;52.754;5.994;2024-03-06T11:50:47;38.55;;;25.88;;
59127;SDS011;44912;52.754;5.994;2024-03-06T11:53:13;39.95;;;25.50;;
59127;SDS011;44912;52.754;5.994;2024-03-06T11:55:39;42.42;;;27.13;;
59127;SDS011;44912;52.754;5.994;2024-03-06T11:58:05;40.65;;;25.65;;
59127;SDS011;44912;52.754;5.994;2024-03-06T12:00:33;37.42;;;24.30;;
59127;SDS011;44912;52.754;5.994;2024-03-06T12:02:58;40.55;;;24.92;;
59127;SDS011;44912;52.754;5.994;2024-03-06T12:05:24;35.30;;;23.20;;
59127;SDS011;44912;52.754;5.994;2024-03-06T12:07:51;31.77;;;22.88;;
59127;SDS011;44912;52.754;5.994;2024-03-06T12:10:17;34.28;;;23.92;;
59127;SDS011;44912;52.754;5.994;2024-03-06T12:12:44;34.78;;;23.35;;
59127;SDS011;44912;52.754;5.994;2024-03-06T12:15:13;36.38;;;24.02;;
59127;SDS011;44912;52.754;5.994;2024-03-06T12:17:58;36.67;;;23.80;;
59127;SDS011;44912;52.754;5.994;2024-03-06T12:20:24;36.07;;;22.93;;
59127;SDS011;44912;52.754;5.994;2024-03-06T12:22:54;35.63;;;23.98;;
59127;SDS011;44912;52.754;5.994;2024-03-06T12:25:23;38.65;;;24.08;;
59127;SDS011;44912;52.754;5.994;2024-03-06T12:27:50;37.67;;;22.70;;
59127;SDS011;44912;52.754;5.994;2024-03-06T12:30:20;37.63;;;23.45;;
59127;SDS011;44912;52.754;5.994;2024-03-06T12:33:00;37.15;;;22.88;;
59127;SDS011;44912;52.754;5.994;2024-03-06T12:35:29;35.28;;;24.25;;
59127;SDS011;44912;52.754;5.994;2024-03-06T12:37:55;37.25;;;24.23;;
59127;SDS011;44912;52.754;5.994;2024-03-06T12:40:22;32.28;;;23.15;;
59127;SDS011;44912;52.754;5.994;2024-03-06T12:42:48;33.72;;;23.67;;
59127;SDS011;44912;52.754;5.994;2024-03-06T12:45:22;33.78;;;22.95;;
59127;SDS011;44912;52.754;5.994;2024-03-06T12:47:48;32.95;;;23.38;;
59127;SDS011;44912;52.754;5.994;2024-03-06T12:50:14;34.92;;;23.02;;
59127;SDS011;44912;52.754;5.994;2024-03-06T12:52:40;30.88;;;21.35;;
59127;SDS011;44912;52.754;5.994;2024-03-06T12:55:06;31.58;;;22.73;;
59127;SDS011;44912;52.754;5.994;2024-03-06T12:57:32;34.67;;;22.85;;
59127;SDS011;44912;52.754;5.994;2024-03-06T12:59:59;32.97;;;22.40;;
59127;SDS011;44912;52.754;5.994;2024-03-06T13:02:25;31.85;;;21.83;;
59127;SDS011;44912;52.754;5.994;2024-03-06T13:04:51;32.40;;;21.50;;
59127;SDS011;44912;52.754;5.994;2024-03-06T13:07:17;30.90;;;21.33;;
59127;SDS011;44912;52.754;5.994;2024-03-06T13:09:43;30.98;;;21.15;;
59127;SDS011;44912;52.754;5.994;2024-03-06T13:12:09;32.65;;;21.38;;
59127;SDS011;44912;52.754;5.994;2024-03-06T13:14:35;33.17;;;21.88;;
59127;SDS011;44912;52.754;5.994;2024-03-06T13:17:01;34.28;;;21.45;;
59127;SDS011;44912;52.754;5.994;2024-03-06T13:19:27;30.75;;;22.33;;
59127;SDS011;44912;52.754;5.994;2024-03-06T13:21:53;26.90;;;19.80;;
59127;SDS011;44912;52.754;5.994;2024-03-06T13:24:19;27.80;;;20.35;;
59127;SDS011;44912;52.754;5.994;2024-03-06T13:26:45;29.10;;;20.92;;
59127;SDS011;44912;52.754;5.994;2024-03-06T13:29:11;29.98;;;21.33;;
59127;SDS011;44912;52.754;5.994;2024-03-06T13:31:37;29.58;;;20.73;;
59127;SDS011;44912;52.754;5.994;2024-03-06T13:34:03;28.05;;;20.20;;
59127;SDS011;44912;52.754;5.994;2024-03-06T13:36:29;29.35;;;20.45;;
59127;SDS011;44912;52.754;5.994;2024-03-06T13:38:55;28.73;;;20.80;;
59127;SDS011;44912;52.754;5.994;2024-03-06T13:41:21;27.65;;;20.25;;
59127;SDS011;44912;52.754;5.994;2024-03-06T13:43:47;27.20;;;20.02;;
59127;SDS011;44912;52.754;5.994;2024-03-06T13:46:13;27.52;;;20.00;;
59127;SDS011;44912;52.754;5.994;2024-03-06T13:48:38;29.70;;;20.30;;
59127;SDS011;44912;52.754;5.994;2024-03-06T13:51:04;28.73;;;19.60;;
59127;SDS011;44912;52.754;5.994;2024-03-06T13:53:30;28.30;;;20.40;;
59127;SDS011;44912;52.754;5.994;2024-03-06T13:55:56;27.38;;;19.08;;
59127;SDS011;44912;52.754;5.994;2024-03-06T13:58:22;26.35;;;18.85;;
59127;SDS011;44912;52.754;5.994;2024-03-06T14:00:48;26.92;;;19.17;;
59127;SDS011;44912;52.754;5.994;2024-03-06T14:03:14;28.98;;;20.02;;
59127;SDS011;44912;52.754;5.994;2024-03-06T14:05:39;28.98;;;20.60;;
59127;SDS011;44912;52.754;5.994;2024-03-06T14:08:05;27.83;;;20.23;;
59127;SDS011;44912;52.754;5.994;2024-03-06T14:10:32;26.17;;;18.88;;
59127;SDS011;44912;52.754;5.994;2024-03-06T14:12:59;26.92;;;19.38;;
59127;SDS011;44912;52.754;5.994;2024-03-06T14:15:25;25.40;;;18.85;;
59127;SDS011;44912;52.754;5.994;2024-03-06T14:17:51;31.70;;;21.75;;
59127;SDS011;44912;52.754;5.994;2024-03-06T14:20:19;29.15;;;19.95;;
59127;SDS011;44912;52.754;5.994;2024-03-06T14:22:45;29.80;;;20.45;;
59127;SDS011;44912;52.754;5.994;2024-03-06T14:25:11;28.23;;;19.80;;
59127;SDS011;44912;52.754;5.994;2024-03-06T14:27:37;29.10;;;20.98;;
59127;SDS011;44912;52.754;5.994;2024-03-06T14:30:06;29.52;;;20.02;;
59127;SDS011;44912;52.754;5.994;2024-03-06T14:32:32;28.30;;;21.42;;